| time (UTC) | temp F | wind direction | speed MPH | gust MPH | rain 1hr in | rain 24hr in | rain mn in | humidity % | barometer mb |
| 20260508051007 | 58 | 270 | 0.0 | 0.0 | 0.00 | 0.00 | 0.00 | 82 | 1016.6 |
| 20260508050507 | 58 | 279 | 0.0 | 0.0 | 0.00 | 0.00 | 0.00 | 83 | 1016.6 |
| 20260508050006 | 58 | 288 | 0.0 | 0.0 | 0.00 | 0.00 | 0.00 | 81 | 1016.6 |
| 20260508045507 | 58 | 288 | 0.0 | 0.0 | 0.00 | 0.00 | 0.00 | 81 | 1016.6 |
| 20260508045007 | 59 | 270 | 0.0 | 0.0 | 0.00 | 0.00 | 0.00 | 80 | 1016.6 |
| 20260508044506 | 59 | 281 | 0.0 | 0.0 | 0.00 | 0.00 | 0.00 | 82 | 1016.6 |
| 20260508044007 | 59 | 304 | 0.0 | 0.0 | 0.00 | 0.00 | 0.00 | 82 | 1016.6 |
| 20260508043507 | 59 | 279 | 0.0 | 0.0 | 0.00 | 0.00 | 0.00 | 78 | 1016.6 |
| 20260508043007 | 60 | 270 | 1.0 | 2.0 | 0.00 | 0.00 | 0.00 | 76 | 1016.6 |
| 20260508042507 | 60 | 270 | 0.0 | 0.0 | 0.00 | 0.00 | 0.00 | 75 | 1016.6 |
| 20260508042006 | 61 | 270 | 0.0 | 0.0 | 0.00 | 0.00 | 0.00 | 71 | 1016.6 |
| 20260508041507 | 61 | 270 | 0.0 | 0.0 | 0.00 | 0.00 | 0.00 | 68 | 1016.5 |
| 20260508041007 | 62 | 270 | 0.0 | 0.0 | 0.00 | 0.00 | 0.00 | 67 | 1016.3 |
| 20260508040507 | 62 | 270 | 0.0 | 0.0 | 0.00 | 0.00 | 0.00 | 64 | 1016.3 |
| 20260508040007 | 63 | 279 | 0.0 | 0.0 | 0.00 | 0.00 | 0.00 | 63 | 1016.3 |
| 20260508035507 | 63 | 270 | 0.0 | 0.0 | 0.00 | 0.00 | 0.00 | 60 | 1016.3 |
| 20260508035006 | 64 | 279 | 1.0 | 4.0 | 0.00 | 0.00 | 0.00 | 57 | 1016.3 |
| 20260508034506 | 64 | 162 | 3.0 | 7.0 | 0.00 | 0.00 | 0.00 | 56 | 1016.3 |
| 20260508034007 | 64 | 0 | 1.0 | 3.0 | 0.00 | 0.00 | 0.00 | 55 | 1016.1 |
| 20260508033508 | 65 | 79 | 2.0 | 5.0 | 0.00 | 0.00 | 0.00 | 55 | 1015.9 |
| 20260508033007 | 65 | 365 | 2.0 | 6.0 | 0.00 | 0.00 | 0.00 | 54 | 1015.9 |
| 20260508032507 | 65 | 203 | 1.0 | 5.0 | 0.00 | 0.00 | 0.00 | 53 | 1015.9 |
| 20260508032007 | 66 | 270 | 1.0 | 5.0 | 0.00 | 0.00 | 0.00 | 52 | 1015.9 |
| 20260508031507 | 66 | 270 | 1.0 | 2.0 | 0.00 | 0.00 | 0.00 | 51 | 1015.7 |
| 20260508031007 | 67 | 288 | 2.0 | 5.0 | 0.00 | 0.00 | 0.00 | 50 | 1015.6 |
| 20260508030507 | 67 | 315 | 0.0 | 0.0 | 0.00 | 0.00 | 0.00 | 50 | 1015.6 |
| 20260508030007 | 68 | 315 | 0.0 | 0.0 | 0.00 | 0.00 | 0.00 | 48 | 1015.6 |
| 20260508025507 | 68 | 315 | 0.0 | 0.0 | 0.00 | 0.00 | 0.00 | 48 | 1015.6 |
| 20260508025007 | 68 | 315 | 0.0 | 1.0 | 0.00 | 0.00 | 0.00 | 47 | 1015.6 |
| 20260508024507 | 68 | 315 | 0.0 | 0.0 | 0.00 | 0.00 | 0.00 | 47 | 1015.6 |
| 20260508024007 | 68 | 315 | 0.0 | 0.0 | 0.00 | 0.00 | 0.00 | 49 | 1015.6 |
| 20260508023507 | 69 | 315 | 0.0 | 0.0 | 0.00 | 0.00 | 0.00 | 47 | 1015.6 |
| 20260508023007 | 69 | 306 | 2.0 | 5.0 | 0.00 | 0.00 | 0.00 | 45 | 1015.6 |
| 20260508022507 | 69 | 304 | 1.0 | 2.0 | 0.00 | 0.00 | 0.00 | 46 | 1015.6 |
| 20260508022006 | 70 | 315 | 1.0 | 2.0 | 0.00 | 0.00 | 0.00 | 44 | 1015.6 |
| 20260508021507 | 70 | 236 | 3.0 | 6.0 | 0.00 | 0.00 | 0.00 | 43 | 1015.6 |
| 20260508021007 | 71 | 315 | 2.0 | 5.0 | 0.00 | 0.00 | 0.00 | 42 | 1015.6 |
| 20260508020508 | 71 | 225 | 3.0 | 5.0 | 0.00 | 0.00 | 0.00 | 42 | 1015.6 |
| 20260508020007 | 71 | 81 | 3.0 | 6.0 | 0.00 | 0.00 | 0.00 | 41 | 1015.9 |
| 20260508015507 | 71 | 225 | 1.0 | 5.0 | 0.00 | 0.00 | 0.00 | 42 | 1015.9 |
| 20260508015006 | 72 | 325 | 2.0 | 4.0 | 0.00 | 0.00 | 0.00 | 42 | 1015.9 |
| 20260508014507 | 72 | 108 | 2.0 | 5.0 | 0.00 | 0.00 | 0.00 | 42 | 1015.9 |
| 20260508014007 | 72 | 225 | 0.0 | 1.0 | 0.00 | 0.00 | 0.00 | 41 | 1015.9 |
| 20260508013507 | 72 | 270 | 4.0 | 5.0 | 0.00 | 0.00 | 0.00 | 41 | 1015.9 |
| 20260508013007 | 72 | 270 | 0.0 | 1.0 | 0.00 | 0.00 | 0.00 | 41 | 1015.9 |
| 20260508012507 | 72 | 270 | 1.0 | 2.0 | 0.00 | 0.00 | 0.00 | 40 | 1015.9 |
| 20260508012007 | 72 | 270 | 0.0 | 0.0 | 0.00 | 0.00 | 0.00 | 40 | 1015.9 |
| 20260508011506 | 73 | 270 | 3.0 | 6.0 | 0.00 | 0.00 | 0.00 | 41 | 1015.9 |
| 20260508011007 | 74 | 315 | 3.0 | 6.0 | 0.00 | 0.00 | 0.00 | 40 | 1016.0 |
| 20260508010507 | 74 | 271 | 2.0 | 6.0 | 0.00 | 0.00 | 0.00 | 39 | 1016.3 |
| 20260508010007 | 75 | 117 | 2.0 | 5.0 | 0.00 | 0.00 | 0.00 | 38 | 1016.3 |
| 20260508005507 | 76 | 315 | 2.0 | 4.0 | 0.00 | 0.00 | 0.00 | 37 | 1016.3 |
| 20260508005006 | 76 | 315 | 0.0 | 2.0 | 0.00 | 0.00 | 0.00 | 36 | 1016.3 |
| 20260508004507 | 76 | 279 | 2.0 | 6.0 | 0.00 | 0.00 | 0.00 | 37 | 1016.3 |
| 20260508004007 | 77 | 180 | 2.0 | 6.0 | 0.00 | 0.00 | 0.00 | 35 | 1016.3 |
| 20260508003506 | 77 | 180 | 1.0 | 4.0 | 0.00 | 0.00 | 0.00 | 36 | 1016.4 |
| 20260508003008 | 76 | 225 | 2.0 | 5.0 | 0.00 | 0.00 | 0.00 | 36 | 1016.3 |
| 20260508002507 | 76 | 225 | 1.0 | 2.0 | 0.00 | 0.00 | 0.00 | 36 | 1016.3 |
| 20260508002007 | 76 | 198 | 2.0 | 5.0 | 0.00 | 0.00 | 0.00 | 37 | 1016.3 |
| 20260508001507 | 76 | 117 | 3.0 | 6.0 | 0.00 | 0.00 | 0.00 | 37 | 1016.6 |
| 20260508001007 | 76 | 270 | 1.0 | 5.0 | 0.00 | 0.00 | 0.00 | 37 | 1016.6 |
| 20260508000507 | 76 | 243 | 2.0 | 5.0 | 0.00 | 0.00 | 0.00 | 37 | 1016.6 |
| 20260508000007 | 76 | 297 | 5.0 | 8.0 | 0.00 | 0.00 | 0.00 | 37 | 1016.6 |
| 20260507235507 | 76 | 315 | 0.0 | 1.0 | 0.00 | 0.00 | 0.00 | 39 | 1016.6 |
| 20260507235007 | 76 | 99 | 2.0 | 5.0 | 0.00 | 0.00 | 0.00 | 38 | 1016.6 |
| 20260507234506 | 77 | 180 | 4.0 | 6.0 | 0.00 | 0.00 | 0.00 | 38 | 1016.6 |
| 20260507234007 | 77 | 306 | 3.0 | 7.0 | 0.00 | 0.00 | 0.00 | 38 | 1016.6 |
| 20260507233507 | 77 | 288 | 3.0 | 6.0 | 0.00 | 0.00 | 0.00 | 39 | 1016.7 |
| 20260507233008 | 77 | 171 | 4.0 | 7.0 | 0.00 | 0.00 | 0.00 | 38 | 1016.9 |
| 20260507232507 | 77 | 234 | 3.0 | 5.0 | 0.00 | 0.00 | 0.00 | 39 | 1016.9 |
| 20260507232007 | 77 | 248 | 3.0 | 5.0 | 0.00 | 0.00 | 0.00 | 39 | 1016.9 |
| 20260507231507 | 77 | 105 | 5.0 | 6.0 | 0.00 | 0.00 | 0.00 | 41 | 1016.9 |
| 20260507231006 | 77 | 198 | 3.0 | 5.0 | 0.00 | 0.00 | 0.00 | 42 | 1017.0 |
| 20260507230507 | 76 | 171 | 2.0 | 5.0 | 0.00 | 0.00 | 0.00 | 42 | 1017.3 |
| 20260507230007 | 76 | 135 | 1.0 | 3.0 | 0.00 | 0.00 | 0.00 | 43 | 1017.3 |
| 20260507225507 | 76 | 117 | 4.0 | 7.0 | 0.00 | 0.00 | 0.00 | 42 | 1017.3 |
| 20260507225007 | 76 | 126 | 1.0 | 4.0 | 0.00 | 0.00 | 0.00 | 42 | 1017.3 |
| 20260507224506 | 76 | 162 | 5.0 | 7.0 | 0.00 | 0.00 | 0.00 | 42 | 1017.3 |
| 20260507224007 | 76 | 144 | 3.0 | 5.0 | 0.00 | 0.00 | 0.00 | 43 | 1017.5 |
| 20260507223507 | 76 | 198 | 5.0 | 7.0 | 0.00 | 0.00 | 0.00 | 42 | 1017.6 |
| 20260507223007 | 76 | 235 | 6.0 | 7.0 | 0.00 | 0.00 | 0.00 | 41 | 1017.6 |
| 20260507222507 | 76 | 243 | 5.0 | 7.0 | 0.00 | 0.00 | 0.00 | 42 | 1017.6 |
| 20260507222007 | 75 | 45 | 3.0 | 5.0 | 0.00 | 0.00 | 0.00 | 43 | 1017.6 |
| 20260507221507 | 75 | 365 | 1.0 | 5.0 | 0.00 | 0.00 | 0.00 | 44 | 1017.6 |
| 20260507221007 | 75 | 289 | 4.0 | 6.0 | 0.00 | 0.00 | 0.00 | 42 | 1017.9 |
| 20260507220507 | 75 | 315 | 5.0 | 5.0 | 0.00 | 0.00 | 0.00 | 43 | 1018.0 |
| 20260507220007 | 75 | 113 | 2.0 | 4.0 | 0.00 | 0.00 | 0.00 | 42 | 1018.0 |
| 20260507215507 | 75 | 150 | 2.0 | 3.0 | 0.00 | 0.00 | 0.00 | 42 | 1018.0 |
| 20260507215007 | 75 | 225 | 5.0 | 6.0 | 0.00 | 0.00 | 0.00 | 41 | 1018.0 |
| 20260507214507 | 75 | 162 | 5.0 | 9.0 | 0.00 | 0.00 | 0.00 | 40 | 1018.0 |
| 20260507214007 | 75 | 169 | 6.0 | 7.0 | 0.00 | 0.00 | 0.00 | 41 | 1018.2 |
| 20260507213506 | 75 | 225 | 6.0 | 8.0 | 0.00 | 0.00 | 0.00 | 42 | 1018.3 |
| 20260507213008 | 75 | 272 | 5.0 | 7.0 | 0.00 | 0.00 | 0.00 | 41 | 1018.3 |
| 20260507212507 | 75 | 195 | 2.0 | 3.0 | 0.00 | 0.00 | 0.00 | 41 | 1018.3 |
| 20260507212007 | 74 | 180 | 5.0 | 5.0 | 0.00 | 0.00 | 0.00 | 42 | 1018.3 |
| 20260507211507 | 74 | 180 | 0.0 | 0.0 | 0.00 | 0.00 | 0.00 | 41 | 1018.3 |
| 20260507211007 | 74 | 113 | 4.0 | 5.0 | 0.00 | 0.00 | 0.00 | 41 | 1018.6 |
| 20260507210506 | 74 | 165 | 6.0 | 8.0 | 0.00 | 0.00 | 0.00 | 44 | 1018.6 |
| 20260507210007 | 72 | 180 | 2.0 | 4.0 | 0.00 | 0.00 | 0.00 | 45 | 1018.6 |
| 20260507205507 | 72 | 207 | 5.0 | 5.0 | 0.00 | 0.00 | 0.00 | 44 | 1018.6 |
| 20260507205007 | 72 | 135 | 0.0 | 0.0 | 0.00 | 0.00 | 0.00 | 43 | 1018.6 |
| 20260507204507 | 72 | 207 | 4.0 | 6.0 | 0.00 | 0.00 | 0.00 | 45 | 1018.9 |
| 20260507204007 | 72 | 255 | 5.0 | 7.0 | 0.00 | 0.00 | 0.00 | 46 | 1019.0 |
| 20260507203507 | 72 | 171 | 5.0 | 7.0 | 0.00 | 0.00 | 0.00 | 46 | 1019.0 |
| 20260507203008 | 72 | 126 | 6.0 | 6.0 | 0.00 | 0.00 | 0.00 | 48 | 1019.0 |
| 20260507202506 | 71 | 144 | 4.0 | 5.0 | 0.00 | 0.00 | 0.00 | 48 | 1019.1 |
| 20260507202007 | 70 | 253 | 4.0 | 5.0 | 0.00 | 0.00 | 0.00 | 49 | 1019.3 |
| 20260507201507 | 69 | 135 | 6.0 | 8.0 | 0.00 | 0.00 | 0.00 | 49 | 1019.3 |
| 20260507201007 | 69 | 0 | 1.0 | 3.0 | 0.00 | 0.00 | 0.00 | 49 | 1019.3 |
| 20260507200507 | 68 | 113 | 5.0 | 7.0 | 0.00 | 0.00 | 0.00 | 48 | 1019.3 |
| 20260507200007 | 68 | 252 | 3.0 | 8.0 | 0.00 | 0.00 | 0.00 | 50 | 1019.5 |
| 20260507195507 | 67 | 99 | 7.0 | 8.0 | 0.00 | 0.00 | 0.00 | 50 | 1019.6 |
| 20260507195007 | 67 | 189 | 6.0 | 8.0 | 0.00 | 0.00 | 0.00 | 51 | 1019.6 |
| 20260507194507 | 67 | 171 | 2.0 | 8.0 | 0.00 | 0.00 | 0.00 | 53 | 1019.6 |
| 20260507194007 | 67 | 162 | 8.0 | 8.0 | 0.00 | 0.00 | 0.00 | 53 | 1019.6 |
| 20260507193507 | 66 | 108 | 5.0 | 7.0 | 0.00 | 0.00 | 0.00 | 53 | 1019.9 |
| 20260507193007 | 66 | 171 | 8.0 | 10.0 | 0.00 | 0.00 | 0.00 | 53 | 1020.0 |
| 20260507192507 | 66 | 36 | 2.0 | 6.0 | 0.00 | 0.00 | 0.00 | 54 | 1020.0 |
| 20260507192007 | 66 | 144 | 5.0 | 7.0 | 0.00 | 0.00 | 0.00 | 55 | 1020.0 |
| 20260507191507 | 66 | 81 | 6.0 | 7.0 | 0.00 | 0.00 | 0.00 | 55 | 1020.0 |
| 20260507191007 | 65 | 216 | 6.0 | 9.0 | 0.00 | 0.00 | 0.00 | 56 | 1020.0 |
| 20260507190508 | 65 | 0 | 0.0 | 0.0 | 0.00 | 0.00 | 0.00 | 57 | 1020.3 |
| 20260507190007 | 64 | 203 | 2.0 | 5.0 | 0.00 | 0.00 | 0.00 | 59 | 1020.3 |
| 20260507185507 | 64 | 153 | 5.0 | 7.0 | 0.00 | 0.00 | 0.00 | 60 | 1020.3 |
| 20260507185006 | 63 | 153 | 6.0 | 8.0 | 0.00 | 0.00 | 0.00 | 61 | 1020.3 |
| 20260507184507 | 62 | 243 | 3.0 | 6.0 | 0.00 | 0.00 | 0.00 | 63 | 1020.3 |
| 20260507184007 | 62 | 243 | 5.0 | 6.0 | 0.00 | 0.00 | 0.00 | 62 | 1020.3 |
| 20260507183507 | 62 | 225 | 1.0 | 3.0 | 0.00 | 0.00 | 0.00 | 64 | 1020.5 |
| 20260507183008 | 61 | 207 | 0.0 | 2.0 | 0.00 | 0.00 | 0.00 | 64 | 1020.7 |
| 20260507182507 | 61 | 180 | 1.0 | 4.0 | 0.00 | 0.00 | 0.00 | 64 | 1020.7 |
| 20260507182007 | 61 | 171 | 5.0 | 9.0 | 0.00 | 0.00 | 0.00 | 65 | 1020.7 |
| 20260507181507 | 60 | 90 | 4.0 | 7.0 | 0.00 | 0.00 | 0.00 | 70 | 1020.7 |
| 20260507181007 | 60 | 208 | 5.0 | 7.0 | 0.00 | 0.00 | 0.00 | 69 | 1020.7 |
| 20260507180507 | 59 | 171 | 6.0 | 7.0 | 0.00 | 0.00 | 0.00 | 67 | 1020.9 |
| 20260507180006 | 59 | 252 | 4.0 | 7.0 | 0.00 | 0.00 | 0.00 | 69 | 1021.0 |
| 20260507175507 | 59 | 45 | 4.0 | 5.0 | 0.00 | 0.00 | 0.00 | 70 | 1021.0 |
| 20260507175007 | 59 | 207 | 3.0 | 6.0 | 0.00 | 0.00 | 0.00 | 71 | 1021.0 |
| 20260507174507 | 59 | 217 | 7.0 | 8.0 | 0.00 | 0.00 | 0.00 | 70 | 1021.0 |
| 20260507174007 | 59 | 180 | 4.0 | 8.0 | 0.00 | 0.00 | 0.00 | 72 | 1021.0 |
| 20260507173507 | 58 | 325 | 7.0 | 9.0 | 0.00 | 0.00 | 0.00 | 74 | 1021.0 |
| 20260507173008 | 58 | 252 | 6.0 | 7.0 | 0.00 | 0.00 | 0.00 | 73 | 1021.1 |
| 20260507172506 | 58 | 158 | 3.0 | 7.0 | 0.00 | 0.00 | 0.00 | 77 | 1021.0 |
| 20260507172007 | 58 | 225 | 5.0 | 6.0 | 0.00 | 0.00 | 0.00 | 75 | 1021.1 |
| 20260507171507 | 57 | 253 | 6.0 | 8.0 | 0.00 | 0.00 | 0.00 | 76 | 1021.3 |
| 20260507171007 | 57 | 244 | 3.0 | 5.0 | 0.00 | 0.00 | 0.00 | 78 | 1021.3 |
| 20260507170506 | 57 | 288 | 5.0 | 8.0 | 0.00 | 0.00 | 0.00 | 78 | 1021.3 |
| 20260507170007 | 57 | 146 | 5.0 | 6.0 | 0.00 | 0.00 | 0.00 | 79 | 1021.3 |
| 20260507165507 | 56 | 135 | 5.0 | 6.0 | 0.00 | 0.00 | 0.00 | 81 | 1021.3 |
| 20260507165007 | 56 | 335 | 2.0 | 5.0 | 0.00 | 0.00 | 0.00 | 81 | 1021.3 |
| 20260507164507 | 56 | 0 | 1.0 | 4.0 | 0.00 | 0.00 | 0.00 | 81 | 1021.3 |
| 20260507164007 | 55 | 159 | 4.0 | 6.0 | 0.00 | 0.00 | 0.00 | 83 | 1021.3 |
| 20260507163507 | 55 | 90 | 4.0 | 6.0 | 0.00 | 0.00 | 0.00 | 83 | 1021.3 |
| 20260507163007 | 55 | 153 | 4.0 | 6.0 | 0.00 | 0.00 | 0.00 | 84 | 1021.3 |
| 20260507162507 | 55 | 117 | 3.0 | 6.0 | 0.00 | 0.00 | 0.00 | 84 | 1021.3 |
| 20260507162006 | 54 | 298 | 2.0 | 5.0 | 0.00 | 0.00 | 0.00 | 85 | 1021.3 |
| 20260507161507 | 54 | 298 | 3.0 | 5.0 | 0.00 | 0.00 | 0.00 | 86 | 1021.3 |
| 20260507161007 | 54 | 337 | 1.0 | 6.0 | 0.00 | 0.00 | 0.00 | 88 | 1021.3 |
| 20260507160507 | 54 | 226 | 4.0 | 7.0 | 0.00 | 0.00 | 0.00 | 86 | 1021.3 |
| 20260507160007 | 53 | 234 | 2.0 | 6.0 | 0.00 | 0.00 | 0.00 | 88 | 1021.3 |
| 20260507155506 | 53 | 135 | 6.0 | 8.0 | 0.00 | 0.00 | 0.00 | 89 | 1021.3 |
| 20260507155007 | 53 | 207 | 5.0 | 7.0 | 0.00 | 0.00 | 0.00 | 88 | 1021.4 |
| 20260507154507 | 53 | 207 | 6.0 | 7.0 | 0.00 | 0.00 | 0.00 | 88 | 1021.7 |
| 20260507154009 | 53 | 198 | 3.0 | 7.0 | 0.00 | 0.00 | 0.00 | 88 | 1021.7 |
| 20260507153507 | 53 | 153 | 3.0 | 5.0 | 0.00 | 0.00 | 0.00 | 88 | 1021.7 |
| 20260507153008 | 53 | 189 | 2.0 | 5.0 | 0.00 | 0.00 | 0.00 | 88 | 1021.7 |
| 20260507152507 | 53 | 270 | 0.0 | 1.0 | 0.00 | 0.00 | 0.00 | 90 | 1021.5 |
| 20260507152007 | 53 | 243 | 2.0 | 6.0 | 0.00 | 0.00 | 0.00 | 90 | 1021.4 |
| 20260507151507 | 53 | 0 | 0.0 | 2.0 | 0.00 | 0.00 | 0.00 | 90 | 1021.5 |
| 20260507151006 | 53 | 189 | 1.0 | 5.0 | 0.00 | 0.00 | 0.00 | 91 | 1021.4 |
| 20260507150507 | 53 | 225 | 0.0 | 0.0 | 0.00 | 0.00 | 0.00 | 91 | 1021.3 |
| 20260507150007 | 52 | 180 | 1.0 | 3.0 | 0.00 | 0.00 | 0.00 | 92 | 1021.6 |
| 20260507145507 | 52 | 0 | 1.0 | 3.0 | 0.00 | 0.00 | 0.00 | 92 | 1021.4 |
| 20260507145007 | 52 | 0 | 1.0 | 6.0 | 0.00 | 0.00 | 0.00 | 92 | 1021.3 |
| 20260507144507 | 52 | 162 | 5.0 | 7.0 | 0.00 | 0.00 | 0.00 | 91 | 1021.3 |
| 20260507144007 | 52 | 155 | 3.0 | 5.0 | 0.00 | 0.00 | 0.00 | 93 | 1021.3 |
| 20260507143507 | 52 | 365 | 1.0 | 3.0 | 0.00 | 0.00 | 0.00 | 93 | 1021.3 |
| 20260507143008 | 52 | 270 | 1.0 | 3.0 | 0.00 | 0.00 | 0.00 | 93 | 1021.3 |
| 20260507142507 | 52 | 279 | 1.0 | 5.0 | 0.00 | 0.00 | 0.00 | 93 | 1021.3 |
| 20260507142007 | 52 | 315 | 0.0 | 0.0 | 0.00 | 0.00 | 0.00 | 93 | 1021.3 |
| 20260507141507 | 52 | 335 | 1.0 | 4.0 | 0.00 | 0.00 | 0.00 | 93 | 1021.3 |
| 20260507141007 | 52 | 279 | 1.0 | 2.0 | 0.00 | 0.00 | 0.00 | 93 | 1021.3 |
| 20260507140507 | 52 | 270 | 0.0 | 1.0 | 0.00 | 0.00 | 0.00 | 93 | 1021.3 |
| 20260507140007 | 52 | 270 | 0.0 | 0.0 | 0.00 | 0.00 | 0.00 | 93 | 1021.3 |
| 20260507135507 | 52 | 270 | 0.0 | 0.0 | 0.00 | 0.00 | 0.00 | 93 | 1021.3 |
| 20260507135006 | 52 | 270 | 0.0 | 0.0 | 0.00 | 0.00 | 0.00 | 93 | 1021.0 |
| 20260507134507 | 52 | 270 | 0.0 | 0.0 | 0.00 | 0.00 | 0.00 | 93 | 1021.0 |
| 20260507134007 | 51 | 270 | 0.0 | 1.0 | 0.00 | 0.00 | 0.00 | 93 | 1021.0 |
| 20260507133507 | 51 | 270 | 0.0 | 1.0 | 0.00 | 0.00 | 0.00 | 93 | 1021.0 |
| 20260507133008 | 51 | 270 | 0.0 | 2.0 | 0.00 | 0.00 | 0.00 | 93 | 1021.0 |
| 20260507132507 | 51 | 270 | 0.0 | 0.0 | 0.00 | 0.00 | 0.00 | 93 | 1021.0 |
| 20260507132006 | 51 | 270 | 0.0 | 0.0 | 0.00 | 0.00 | 0.00 | 93 | 1021.0 |
| 20260507131507 | 51 | 270 | 0.0 | 0.0 | 0.00 | 0.00 | 0.00 | 93 | 1021.0 |
| 20260507131007 | 51 | 270 | 0.0 | 0.0 | 0.00 | 0.00 | 0.00 | 93 | 1021.0 |
| 20260507130507 | 52 | 270 | 0.0 | 0.0 | 0.00 | 0.00 | 0.00 | 93 | 1021.0 |
| 20260507130006 | 52 | 270 | 0.0 | 0.0 | 0.00 | 0.00 | 0.00 | 93 | 1021.0 |
| 20260507125507 | 52 | 270 | 0.0 | 0.0 | 0.00 | 0.00 | 0.00 | 93 | 1021.0 |
| 20260507125007 | 52 | 270 | 0.0 | 0.0 | 0.00 | 0.00 | 0.00 | 93 | 1021.0 |
| 20260507124507 | 52 | 270 | 0.0 | 0.0 | 0.00 | 0.00 | 0.00 | 93 | 1021.0 |
| 20260507124007 | 52 | 270 | 0.0 | 0.0 | 0.00 | 0.00 | 0.00 | 93 | 1021.0 |
| 20260507123507 | 52 | 270 | 0.0 | 0.0 | 0.00 | 0.00 | 0.00 | 93 | 1021.0 |
| 20260507123007 | 52 | 135 | 0.0 | 1.0 | 0.00 | 0.00 | 0.00 | 93 | 1021.0 |
| 20260507122507 | 52 | 0 | 0.0 | 0.0 | 0.00 | 0.00 | 0.00 | 93 | 1021.0 |
| 20260507122007 | 52 | 0 | 0.0 | 0.0 | 0.00 | 0.00 | 0.00 | 93 | 1021.0 |
| 20260507121506 | 52 | 63 | 0.0 | 2.0 | 0.00 | 0.00 | 0.00 | 93 | 1021.0 |
| 20260507121007 | 52 | 315 | 0.0 | 2.0 | 0.00 | 0.00 | 0.00 | 93 | 1021.0 |
| 20260507120507 | 52 | 315 | 0.0 | 0.0 | 0.00 | 0.00 | 0.00 | 93 | 1021.0 |
| 20260507120007 | 52 | 315 | 3.0 | 5.0 | 0.00 | 0.00 | 0.00 | 93 | 1021.0 |
| 20260507115508 | 52 | 0 | 5.0 | 5.0 | 0.00 | 0.00 | 0.00 | 93 | 1021.3 |
| 20260507115006 | 52 | 315 | 0.0 | 0.0 | 0.00 | 0.00 | 0.00 | 93 | 1021.3 |
| 20260507114507 | 52 | 315 | 0.0 | 2.0 | 0.00 | 0.00 | 0.00 | 93 | 1021.3 |
| 20260507114007 | 53 | 225 | 1.0 | 2.0 | 0.00 | 0.00 | 0.00 | 93 | 1021.3 |
| 20260507113507 | 53 | 117 | 3.0 | 6.0 | 0.00 | 0.00 | 0.00 | 93 | 1021.3 |
| 20260507113007 | 53 | 0 | 0.0 | 1.0 | 0.00 | 0.00 | 0.00 | 94 | 1021.3 |
| 20260507112507 | 53 | 0 | 1.0 | 2.0 | 0.00 | 0.00 | 0.00 | 94 | 1021.3 |
| 20260507112007 | 53 | 0 | 0.0 | 0.0 | 0.00 | 0.00 | 0.00 | 94 | 1021.3 |
| 20260507111507 | 53 | 54 | 1.0 | 3.0 | 0.00 | 0.00 | 0.00 | 93 | 1021.3 |
| 20260507111007 | 53 | 279 | 4.0 | 8.0 | 0.00 | 0.00 | 0.00 | 93 | 1021.3 |
| 20260507110507 | 53 | 181 | 2.0 | 4.0 | 0.00 | 0.00 | 0.00 | 94 | 1021.3 |
| 20260507110007 | 53 | 227 | 4.0 | 6.0 | 0.00 | 0.00 | 0.00 | 94 | 1021.3 |
| 20260507105507 | 53 | 126 | 3.0 | 7.0 | 0.00 | 0.00 | 0.00 | 94 | 1021.3 |
| 20260507105007 | 53 | 170 | 4.0 | 6.0 | 0.00 | 0.00 | 0.00 | 94 | 1021.3 |
| 20260507104507 | 53 | 243 | 5.0 | 6.0 | 0.00 | 0.00 | 0.00 | 94 | 1021.3 |
| 20260507104007 | 53 | 135 | 5.0 | 6.0 | 0.00 | 0.00 | 0.00 | 93 | 1021.3 |
| 20260507103507 | 53 | 234 | 2.0 | 6.0 | 0.00 | 0.00 | 0.00 | 94 | 1021.3 |
| 20260507103006 | 53 | 225 | 1.0 | 5.0 | 0.00 | 0.00 | 0.00 | 94 | 1021.3 |
| 20260507102507 | 53 | 317 | 4.0 | 6.0 | 0.00 | 0.00 | 0.00 | 94 | 1021.3 |
| 20260507102007 | 53 | 297 | 2.0 | 6.0 | 0.00 | 0.00 | 0.00 | 94 | 1021.3 |
| 20260507101507 | 53 | 144 | 4.0 | 6.0 | 0.00 | 0.00 | 0.00 | 94 | 1021.5 |
| 20260507101007 | 54 | 0 | 1.0 | 5.0 | 0.00 | 0.00 | 0.00 | 94 | 1021.7 |
| 20260507100507 | 54 | 198 | 3.0 | 5.0 | 0.00 | 0.00 | 0.00 | 94 | 1021.7 |
| 20260507100007 | 54 | 270 | 0.0 | 1.0 | 0.00 | 0.00 | 0.00 | 94 | 1021.7 |
| 20260507095507 | 54 | 153 | 2.0 | 5.0 | 0.00 | 0.00 | 0.00 | 94 | 1021.7 |
| 20260507095006 | 54 | 325 | 1.0 | 3.0 | 0.00 | 0.00 | 0.00 | 94 | 1021.7 |
| 20260507094507 | 54 | 252 | 1.0 | 3.0 | 0.00 | 0.00 | 0.00 | 94 | 1021.7 |
| 20260507094007 | 54 | 0 | 0.0 | 0.0 | 0.00 | 0.00 | 0.00 | 94 | 1021.7 |
| 20260507093507 | 54 | 0 | 1.0 | 3.0 | 0.00 | 0.00 | 0.00 | 94 | 1021.7 |
| 20260507093007 | 54 | 293 | 4.0 | 6.0 | 0.00 | 0.00 | 0.00 | 94 | 1021.7 |
| 20260507092506 | 54 | 315 | 3.0 | 5.0 | 0.00 | 0.00 | 0.00 | 94 | 1021.7 |
| 20260507092007 | 54 | 171 | 3.0 | 6.0 | 0.00 | 0.00 | 0.00 | 93 | 1021.7 |
| 20260507091507 | 54 | 181 | 5.0 | 8.0 | 0.00 | 0.00 | 0.00 | 93 | 1021.9 |
| 20260507091007 | 54 | 171 | 3.0 | 6.0 | 0.00 | 0.00 | 0.00 | 93 | 1022.0 |
| 20260507090507 | 54 | 181 | 3.0 | 6.0 | 0.00 | 0.00 | 0.00 | 93 | 1022.0 |
| 20260507090008 | 54 | 243 | 4.0 | 7.0 | 0.00 | 0.00 | 0.00 | 93 | 1022.0 |
| 20260507085506 | 54 | 234 | 3.0 | 5.0 | 0.00 | 0.00 | 0.00 | 93 | 1022.0 |
| 20260507085007 | 54 | 135 | 5.0 | 6.0 | 0.00 | 0.00 | 0.00 | 93 | 1022.0 |
| 20260507084508 | 54 | 225 | 5.0 | 7.0 | 0.00 | 0.00 | 0.00 | 93 | 1022.0 |
| 20260507084007 | 54 | 153 | 5.0 | 7.0 | 0.00 | 0.00 | 0.00 | 93 | 1022.0 |
| 20260507083506 | 54 | 270 | 4.0 | 5.0 | 0.00 | 0.00 | 0.00 | 93 | 1022.0 |
| 20260507083007 | 54 | 72 | 5.0 | 6.0 | 0.00 | 0.00 | 0.00 | 93 | 1022.0 |
| 20260507082507 | 54 | 190 | 3.0 | 5.0 | 0.00 | 0.00 | 0.00 | 93 | 1022.0 |
| 20260507082007 | 54 | 270 | 4.0 | 7.0 | 0.00 | 0.00 | 0.00 | 93 | 1022.0 |
| 20260507081507 | 54 | 262 | 3.0 | 5.0 | 0.00 | 0.00 | 0.00 | 94 | 1022.0 |
| 20260507081006 | 54 | 253 | 4.0 | 5.0 | 0.00 | 0.00 | 0.00 | 94 | 1022.0 |
| 20260507080508 | 54 | 158 | 4.0 | 5.0 | 0.00 | 0.00 | 0.00 | 93 | 1021.9 |
| 20260507080006 | 54 | 162 | 6.0 | 8.0 | 0.00 | 0.00 | 0.00 | 94 | 1022.0 |
| 20260507075507 | 54 | 216 | 5.0 | 8.0 | 0.00 | 0.00 | 0.00 | 94 | 1022.0 |
| 20260507075007 | 54 | 271 | 3.0 | 6.0 | 0.00 | 0.00 | 0.00 | 94 | 1022.0 |
| 20260507074507 | 54 | 293 | 3.0 | 5.0 | 0.00 | 0.00 | 0.00 | 94 | 1022.0 |
| 20260507074007 | 54 | 270 | 1.0 | 3.0 | 0.00 | 0.00 | 0.00 | 94 | 1022.0 |
| 20260507073507 | 54 | 326 | 3.0 | 5.0 | 0.00 | 0.00 | 0.00 | 94 | 1022.0 |
| 20260507073006 | 54 | 297 | 4.0 | 5.0 | 0.00 | 0.00 | 0.00 | 94 | 1021.9 |
| 20260507072507 | 54 | 279 | 4.0 | 5.0 | 0.00 | 0.00 | 0.00 | 94 | 1021.7 |
| 20260507072008 | 54 | 259 | 3.0 | 5.0 | 0.00 | 0.00 | 0.00 | 94 | 1021.7 |
| 20260507071506 | 54 | 216 | 3.0 | 6.0 | 0.00 | 0.00 | 0.00 | 94 | 1021.7 |
| 20260507071007 | 54 | 0 | 3.0 | 6.0 | 0.00 | 0.00 | 0.00 | 94 | 1021.7 |
| 20260507070508 | 54 | 18 | 2.0 | 5.0 | 0.00 | 0.00 | 0.00 | 94 | 1021.7 |
| 20260507070010 | 54 | 117 | 3.0 | 5.0 | 0.00 | 0.00 | 0.00 | 94 | 1021.7 |
| 20260507065507 | 54 | 249 | 3.0 | 4.0 | 0.00 | 0.00 | 0.00 | 94 | 1021.7 |
| 20260507065007 | 55 | 328 | 6.0 | 7.0 | 0.00 | 0.00 | 0.00 | 94 | 1021.7 |
| 20260507064506 | 55 | 193 | 6.0 | 8.0 | 0.00 | 0.00 | 0.00 | 94 | 1021.7 |
| 20260507064007 | 55 | 234 | 6.0 | 7.0 | 0.00 | 0.00 | 0.00 | 94 | 1021.7 |
| 20260507063507 | 55 | 279 | 5.0 | 7.0 | 0.00 | 0.00 | 0.00 | 94 | 1021.7 |
| 20260507063007 | 55 | 135 | 4.0 | 7.0 | 0.00 | 0.00 | 0.00 | 94 | 1021.7 |
| 20260507062507 | 55 | 189 | 2.0 | 8.0 | 0.00 | 0.00 | 0.00 | 94 | 1021.7 |
| 20260507062008 | 55 | 200 | 3.0 | 6.0 | 0.00 | 0.00 | 0.00 | 94 | 1021.7 |
| 20260507061507 | 55 | 300 | 4.0 | 6.0 | 0.00 | 0.00 | 0.00 | 94 | 1022.0 |
| 20260507061007 | 55 | 162 | 3.0 | 5.0 | 0.00 | 0.00 | 0.00 | 94 | 1022.0 |
| 20260507060507 | 55 | 234 | 5.0 | 7.0 | 0.00 | 0.00 | 0.00 | 94 | 1021.7 |
| 20260507060007 | 55 | 180 | 3.0 | 6.0 | 0.00 | 0.00 | 0.00 | 94 | 1021.7 |
| 20260507055507 | 55 | 279 | 3.0 | 6.0 | 0.00 | 0.00 | 0.00 | 94 | 1021.9 |
| 20260507055007 | 55 | 135 | 1.0 | 5.0 | 0.00 | 0.00 | 0.00 | 94 | 1021.7 |
| 20260507054507 | 55 | 90 | 1.0 | 2.0 | 0.00 | 0.00 | 0.00 | 94 | 1021.7 |
| 20260507054007 | 56 | 146 | 1.0 | 5.0 | 0.00 | 0.00 | 0.00 | 94 | 1021.7 |
| 20260507053507 | 56 | 293 | 3.0 | 5.0 | 0.00 | 0.00 | 0.00 | 94 | 1021.8 |
| 20260507053007 | 56 | 315 | 2.0 | 4.0 | 0.00 | 0.00 | 0.00 | 94 | 1021.7 |
| 20260507052507 | 56 | 225 | 0.0 | 1.0 | 0.00 | 0.00 | 0.00 | 94 | 1021.7 |
| 20260507052007 | 56 | 225 | 1.0 | 2.0 | 0.00 | 0.00 | 0.00 | 94 | 1021.7 |
| 20260507051507 | 56 | 279 | 2.0 | 5.0 | 0.00 | 0.00 | 0.00 | 93 | 1021.7 |